createdAt,value
2022-07-26T04:00:57.118Z,99403.61
2022-07-26T04:03:25.644Z,99389.25
2022-07-26T04:05:55.211Z,99390.34
2022-07-26T04:08:25.124Z,99387.63
2022-07-26T04:10:54.152Z,99380.23
2022-07-26T04:13:24.775Z,99382.51
2022-07-26T04:15:53.652Z,99373.31
2022-07-26T04:18:24.177Z,99373.98
2022-07-26T04:20:54.138Z,99370.99
2022-07-26T04:23:23.299Z,99367.70
2022-07-26T04:25:52.476Z,99368.77
2022-07-26T04:28:21.560Z,99368.00
2022-07-26T04:30:50.690Z,99360.48
2022-07-26T04:33:19.973Z,99359.95
2022-07-26T04:35:49.165Z,99366.04
2022-07-26T04:38:18.369Z,99377.24
2022-07-26T04:40:47.485Z,99380.15
2022-07-26T04:43:20.607Z,99396.10
2022-07-26T04:45:50.572Z,99429.92
2022-07-26T04:48:20.106Z,99417.30
2022-07-26T04:50:49.369Z,99387.10
2022-07-26T04:53:18.408Z,99391.67
2022-07-26T04:55:48.495Z,99403.87
2022-07-26T04:58:19.124Z,99410.12
2022-07-26T05:01:09.412Z,99401.21
2022-07-26T05:03:39.798Z,99401.21
2022-07-26T05:06:08.797Z,99398.87
2022-07-26T05:08:38.168Z,99406.02
2022-07-26T05:11:07.821Z,99407.23
2022-07-26T05:13:37.371Z,99416.19
2022-07-26T05:16:11.672Z,99423.27
2022-07-26T05:18:45.758Z,99425.23
2022-07-26T05:21:19.324Z,99429.52
2022-07-26T05:23:50.646Z,99421.19
2022-07-26T05:26:19.079Z,99428.43
2022-07-26T05:28:47.524Z,99421.16
2022-07-26T05:31:17.278Z,99413.88
2022-07-26T05:33:46.027Z,99414.71
2022-07-26T05:36:14.763Z,99408.75
2022-07-26T05:38:43.506Z,99420.89
2022-07-26T05:41:12.852Z,99426.25
2022-07-26T05:43:42.325Z,99442.50
2022-07-26T05:46:12.848Z,99449.20
2022-07-26T05:48:43.531Z,99451.70
2022-07-26T05:51:13.213Z,99458.20
2022-07-26T05:53:42.388Z,99456.70
2022-07-26T05:56:11.694Z,99461.95
2022-07-26T05:58:40.899Z,99462.19
2022-07-26T06:01:10.386Z,99466.69
2022-07-26T06:03:39.195Z,99464.36
2022-07-26T06:06:08.405Z,99469.02
2022-07-26T06:08:37.794Z,99464.79
2022-07-26T06:11:06.747Z,99468.30
2022-07-26T06:13:35.772Z,99470.86
2022-07-26T06:16:05.645Z,99473.95
2022-07-26T06:18:34.366Z,99480.25
2022-07-26T06:21:02.845Z,99481.80
2022-07-26T06:23:34.694Z,99483.20
2022-07-26T06:26:05.006Z,99482.80
2022-07-26T06:28:34.546Z,99483.89
2022-07-26T06:31:03.139Z,99487.67
2022-07-26T06:33:31.869Z,99485.45
2022-07-26T06:36:00.979Z,99494.36
2022-07-26T06:38:29.494Z,99493.14
2022-07-26T06:40:58.931Z,99495.60
2022-07-26T06:43:28.057Z,99499.02
2022-07-26T06:45:57.206Z,99498.70
2022-07-26T06:48:25.802Z,99493.21
2022-07-26T06:50:54.378Z,99495.64
2022-07-26T06:53:23.539Z,99499.97
2022-07-26T06:55:52.315Z,99503.83
2022-07-26T06:58:20.759Z,99500.71
2022-07-26T07:00:50.042Z,99490.14
2022-07-26T07:03:19.562Z,99486.77
2022-07-26T07:05:50.002Z,99481.77
2022-07-26T07:08:21.753Z,99480.61
2022-07-26T07:10:54.216Z,99480.41
2022-07-26T07:13:26.002Z,99461.61
2022-07-26T07:15:55.365Z,99453.52
2022-07-26T07:18:24.087Z,99453.77
2022-07-26T07:20:53.149Z,99467.52
2022-07-26T07:23:23.682Z,99462.73
2022-07-26T07:25:52.727Z,99454.17
2022-07-26T07:28:22.217Z,99456.15
2022-07-26T07:30:52.819Z,99463.23
2022-07-26T07:33:23.115Z,99474.68
2022-07-26T07:35:54.546Z,99473.77
2022-07-26T07:38:22.919Z,99468.61
2022-07-26T07:40:52.791Z,99466.64
2022-07-26T07:43:23.543Z,99464.95
2022-07-26T07:45:52.139Z,99469.17
2022-07-26T07:48:20.859Z,99475.13
2022-07-26T07:50:50.153Z,99473.33
2022-07-26T07:53:18.575Z,99469.56
2022-07-26T07:55:49.360Z,99483.64
2022-07-26T07:58:20.519Z,99494.02
2022-07-26T08:00:49.938Z,99492.89
2022-07-26T08:03:24.342Z,99481.70
2022-07-26T08:06:10.934Z,99477.27
2022-07-26T08:08:40.302Z,99474.59
2022-07-26T08:11:09.476Z,99476.30
2022-07-26T08:13:47.284Z,99480.73
2022-07-26T08:16:17.468Z,99482.66
2022-07-26T08:18:57.787Z,99484.44
2022-07-26T08:21:37.683Z,99496.23
2022-07-26T08:24:06.650Z,99506.23
2022-07-26T08:26:35.064Z,99511.08
2022-07-26T08:29:04.068Z,99516.04
2022-07-26T08:31:32.721Z,99520.54
2022-07-26T08:34:01.638Z,99527.36
2022-07-26T08:36:32.555Z,99536.18
2022-07-26T08:39:02.054Z,99548.05
2022-07-26T08:41:31.965Z,99546.44
2022-07-26T08:44:09.127Z,99547.10
2022-07-26T08:46:41.829Z,99550.02
2022-07-26T08:49:13.528Z,99552.13
2022-07-26T08:51:45.303Z,99553.12
2022-07-26T08:54:16.247Z,99560.38
2022-07-26T08:56:53.059Z,99569.05
2022-07-26T08:59:23.436Z,99573.55
2022-07-26T09:01:57.208Z,99582.45
2022-07-26T09:04:32.154Z,99591.55
2022-07-26T09:07:22.293Z,99595.98
2022-07-26T09:10:01.045Z,99589.79
2022-07-26T09:12:32.572Z,99593.03
2022-07-26T09:15:03.403Z,99599.91
2022-07-26T09:17:44.282Z,99600.67
2022-07-26T09:20:15.649Z,99596.79
2022-07-26T09:23:03.299Z,99592.98
2022-07-26T09:25:35.340Z,99593.67
2022-07-26T09:28:21.264Z,99600.86
2022-07-26T09:30:55.533Z,99601.63
2022-07-26T09:33:24.867Z,99606.02
2022-07-26T09:36:06.914Z,99613.28
2022-07-26T09:38:46.071Z,99620.11
2022-07-26T09:41:34.951Z,99624.08
2022-07-26T09:44:07.349Z,99624.61
2022-07-26T09:46:57.526Z,99627.51
2022-07-26T09:49:40.252Z,99625.45
2022-07-26T09:52:22.229Z,99630.88
2022-07-26T09:54:51.939Z,99636.74
2022-07-26T09:57:21.690Z,99641.36
2022-07-26T09:59:51.813Z,99646.58
2022-07-26T10:02:20.770Z,99648.29
2022-07-26T10:04:49.210Z,99654.07
2022-07-26T10:07:18.769Z,99657.57
2022-07-26T10:10:09.446Z,99665.30
2022-07-26T10:12:38.149Z,99670.80
2022-07-26T10:15:33.768Z,99671.85
2022-07-26T10:18:03.652Z,99671.91
2022-07-26T10:20:44.504Z,99674.98
2022-07-26T10:23:33.486Z,99679.17
2022-07-26T10:26:03.729Z,99685.92
2022-07-26T10:28:34.849Z,99692.94
2022-07-26T10:31:32.822Z,99693.14
2022-07-26T10:34:07.100Z,99688.91
2022-07-26T10:36:40.608Z,99691.38
2022-07-26T10:39:24.368Z,99691.45
2022-07-26T10:42:00.933Z,99699.92
2022-07-26T10:44:31.969Z,99707.26
2022-07-26T10:47:11.750Z,99711.02
2022-07-26T10:49:43.887Z,99710.81
2022-07-26T10:52:19.584Z,99704.94
2022-07-26T10:54:57.445Z,99709.81
2022-07-26T10:57:28.020Z,99711.05
2022-07-26T10:59:59.292Z,99710.47
2022-07-26T11:02:33.441Z,99710.54
2022-07-26T11:05:16.599Z,99711.09
2022-07-26T11:08:05.729Z,99712.30
2022-07-26T11:10:41.365Z,99714.04
2022-07-26T11:13:15.053Z,99715.54
2022-07-26T11:15:54.909Z,99716.13
2022-07-26T11:18:28.899Z,99721.14
2022-07-26T11:21:09.253Z,99718.69
2022-07-26T11:23:40.368Z,99720.73
2022-07-26T11:26:21.190Z,99730.25
2022-07-26T11:29:01.356Z,99733.73
2022-07-26T11:31:50.582Z,99738.04
2022-07-26T11:34:34.241Z,99741.71
2022-07-26T11:37:05.358Z,99747.98
2022-07-26T11:39:36.804Z,99749.16
2022-07-26T11:42:16.939Z,99749.90
2022-07-26T11:44:47.684Z,99753.04
2022-07-26T11:47:25.536Z,99757.83
2022-07-26T11:52:44.616Z,99756.86
2022-07-26T11:55:14.044Z,99757.80
2022-07-26T11:57:42.957Z,99763.69
2022-07-26T12:00:13.993Z,99760.33
2022-07-26T12:02:44.302Z,99769.98
2022-07-26T12:05:20.004Z,99766.72
2022-07-26T12:07:59.424Z,99762.86
2022-07-26T12:10:30.505Z,99757.79
2022-07-26T12:13:14.047Z,99759.17
2022-07-26T12:15:47.868Z,99766.48
2022-07-26T12:18:27.934Z,99760.33
2022-07-26T12:21:04.963Z,99757.02
2022-07-26T12:23:50.120Z,99756.40
2022-07-26T12:26:25.345Z,99757.29
2022-07-26T12:28:56.864Z,99758.49
2022-07-26T12:31:33.318Z,99757.02
2022-07-26T12:34:02.456Z,99753.05
2022-07-26T12:36:36.315Z,99748.59
2022-07-26T12:39:06.662Z,99748.20
2022-07-26T12:41:38.458Z,99747.05
2022-07-26T12:44:12.829Z,99745.62
2022-07-26T12:46:45.450Z,99748.92
2022-07-26T12:49:15.705Z,99744.80
2022-07-26T12:51:45.362Z,99741.77
2022-07-26T12:54:15.079Z,99743.69
2022-07-26T12:56:46.554Z,99745.84
2022-07-26T12:59:17.668Z,99737.30
2022-07-26T13:01:50.294Z,99736.59
2022-07-26T13:04:20.495Z,99735.87
2022-07-26T13:06:54.689Z,99736.85
2022-07-26T13:09:28.160Z,99737.58
2022-07-26T13:12:00.009Z,99738.52
2022-07-26T13:14:28.967Z,99740.67
2022-07-26T13:16:58.887Z,99734.84
2022-07-26T13:19:30.082Z,99734.23
2022-07-26T13:22:00.803Z,99734.16
2022-07-26T13:24:31.396Z,99733.23
2022-07-26T13:27:03.132Z,99733.50
2022-07-26T13:29:34.700Z,99729.58
2022-07-26T13:32:05.339Z,99728.36
2022-07-26T13:34:35.456Z,99728.92
2022-07-26T13:37:08.577Z,99725.67
2022-07-26T13:39:38.201Z,99724.07
2022-07-26T13:42:09.333Z,99725.67
2022-07-26T13:44:41.655Z,99727.77
2022-07-26T13:47:10.400Z,99724.67
2022-07-26T13:49:40.786Z,99726.98
2022-07-26T13:52:15.828Z,99726.89
2022-07-26T13:54:45.876Z,99725.90
2022-07-26T13:57:15.068Z,99733.22
2022-07-26T13:59:44.613Z,99737.80
2022-07-26T14:02:14.134Z,99734.37
2022-07-26T14:04:43.161Z,99734.14
2022-07-26T14:07:12.407Z,99733.46
2022-07-26T14:09:41.102Z,99732.77
2022-07-26T14:12:13.736Z,99723.73
2022-07-26T14:14:42.298Z,99722.60
2022-07-26T14:17:10.837Z,99724.19
2022-07-26T14:19:40.253Z,99728.21
2022-07-26T14:22:09.818Z,99727.55
2022-07-26T14:24:38.341Z,99726.17
2022-07-26T14:27:08.766Z,99721.21
2022-07-26T14:29:37.732Z,99722.08
2022-07-26T14:32:07.598Z,99725.06
2022-07-26T14:34:37.281Z,99726.12
2022-07-26T14:37:09.952Z,99723.27
2022-07-26T14:39:55.228Z,99723.02
2022-07-26T14:42:28.260Z,99721.57
2022-07-26T14:44:57.658Z,99718.61
2022-07-26T14:47:26.780Z,99717.00
2022-07-26T14:49:56.150Z,99713.25
2022-07-26T14:52:25.404Z,99713.85
2022-07-26T14:54:54.713Z,99710.45
2022-07-26T14:57:23.101Z,99709.39
2022-07-26T14:59:52.535Z,99709.65
2022-07-26T15:02:21.425Z,99705.95
2022-07-26T15:04:50.032Z,99707.42
2022-07-26T15:07:18.966Z,99704.46
2022-07-26T15:09:48.428Z,99705.52
2022-07-26T15:12:17.712Z,99705.39
2022-07-26T15:14:46.485Z,99704.96
2022-07-26T15:17:15.122Z,99701.24
2022-07-26T15:19:43.589Z,99703.23
2022-07-26T15:22:12.381Z,99705.94
2022-07-26T15:24:40.958Z,99704.40
2022-07-26T15:27:10.239Z,99700.59
2022-07-26T15:29:46.955Z,99697.25
2022-07-26T15:32:16.082Z,99699.42
2022-07-26T15:34:47.683Z,99705.16
2022-07-26T15:37:17.295Z,99707.15
2022-07-26T15:39:46.530Z,99702.46
2022-07-26T15:42:16.162Z,99701.67
2022-07-26T15:44:47.126Z,99696.33
2022-07-26T15:47:53.278Z,99698.14
2022-07-26T15:50:12.536Z,99697.24
2022-07-26T15:52:49.588Z,99697.04
2022-07-26T15:55:20.283Z,99698.98
2022-07-26T15:57:49.714Z,99699.70
2022-07-26T16:00:19.386Z,99701.07
2022-07-26T16:02:49.108Z,99702.19
2022-07-26T16:05:18.442Z,99706.34
2022-07-26T16:07:48.459Z,99703.34
2022-07-26T16:10:18.018Z,99704.07
2022-07-26T16:12:47.235Z,99706.02
2022-07-26T16:15:16.642Z,99704.26
2022-07-26T16:17:46.038Z,99708.78
2022-07-26T16:20:16.789Z,99712.52
2022-07-26T16:22:50.296Z,99710.42
2022-07-26T16:25:19.795Z,99714.12
2022-07-26T16:27:50.057Z,99718.48
2022-07-26T16:30:20.029Z,99717.27
2022-07-26T16:32:49.237Z,99715.89
2022-07-26T16:35:18.618Z,99718.13
2022-07-26T16:37:50.051Z,99721.41
2022-07-26T16:40:19.369Z,99721.36
2022-07-26T16:42:48.652Z,99721.48
2022-07-26T16:45:18.159Z,99720.60
2022-07-26T16:47:47.729Z,99722.81
2022-07-26T16:50:27.321Z,99721.90
2022-07-26T16:52:59.016Z,99723.51
2022-07-26T16:55:28.805Z,99724.38
2022-07-26T16:57:58.080Z,99729.16
2022-07-26T17:00:27.894Z,99724.27
2022-07-26T17:02:56.877Z,99725.65
2022-07-26T17:05:26.411Z,99729.91
2022-07-26T17:07:56.878Z,99730.30
2022-07-26T17:10:28.763Z,99734.48
2022-07-26T17:12:58.487Z,99741.64
2022-07-26T17:15:27.643Z,99737.33
2022-07-26T17:17:57.121Z,99735.73
2022-07-26T17:20:30.328Z,99736.51
2022-07-26T17:23:02.311Z,99736.67
2022-07-26T17:25:31.389Z,99735.45
2022-07-26T17:28:01.811Z,99736.30
2022-07-26T17:30:31.287Z,99736.48
2022-07-26T17:33:02.396Z,99735.94
2022-07-26T17:35:32.218Z,99734.29
2022-07-26T17:38:04.167Z,99729.73
2022-07-26T17:40:34.635Z,99731.35
2022-07-26T17:43:05.407Z,99731.23
2022-07-26T17:45:35.004Z,99731.74
2022-07-26T17:48:06.543Z,99728.05
2022-07-26T17:50:37.377Z,99725.86
2022-07-26T17:53:07.528Z,99723.61
2022-07-26T17:55:37.349Z,99728.39
2022-07-26T17:58:06.655Z,99734.86
2022-07-26T18:00:35.409Z,99731.41
2022-07-26T18:03:08.867Z,99726.68
2022-07-26T18:05:41.399Z,99728.52
2022-07-26T18:08:11.391Z,99731.19
2022-07-26T18:10:50.600Z,99732.69
2022-07-26T18:13:21.666Z,99734.80
2022-07-26T18:15:51.692Z,99741.96
2022-07-26T18:18:20.958Z,99745.20
2022-07-26T18:20:50.496Z,99747.15
2022-07-26T18:23:19.413Z,99745.23
2022-07-26T18:25:48.989Z,99742.38
2022-07-26T18:28:18.152Z,99744.23
2022-07-26T18:30:47.112Z,99742.31
2022-07-26T18:33:18.878Z,99745.29
2022-07-26T18:35:48.111Z,99744.13
2022-07-26T18:38:17.155Z,99746.77
2022-07-26T18:40:45.819Z,99749.45
2022-07-26T18:43:14.330Z,99747.41
2022-07-26T18:45:43.387Z,99752.98
2022-07-26T18:48:12.292Z,99752.02
2022-07-26T18:50:44.439Z,99754.91
2022-07-26T18:53:13.571Z,99758.84
2022-07-26T18:55:42.872Z,99757.71
2022-07-26T18:58:12.075Z,99755.63
2022-07-26T19:00:41.516Z,99756.02
2022-07-26T19:03:11.871Z,99758.55
2022-07-26T19:05:42.782Z,99757.45
2022-07-26T19:08:11.176Z,99762.29
2022-07-26T19:10:39.688Z,99768.63
2022-07-26T19:13:08.153Z,99769.65
2022-07-26T19:15:36.681Z,99771.45
2022-07-26T19:18:16.280Z,99768.48
2022-07-26T19:20:44.936Z,99774.17
2022-07-26T19:23:17.174Z,99770.59
2022-07-26T19:25:48.300Z,99773.22
2022-07-26T19:28:17.302Z,99773.45
2022-07-26T19:30:47.634Z,99778.73
2022-07-26T19:33:19.667Z,99775.45
2022-07-26T19:35:49.211Z,99779.39
2022-07-26T19:38:18.938Z,99779.81
2022-07-26T19:40:48.759Z,99780.34
2022-07-26T19:43:18.527Z,99781.16
2022-07-26T19:45:49.793Z,99781.43
2022-07-26T19:48:21.299Z,99777.05
2022-07-26T19:50:52.732Z,99782.63
2022-07-26T19:53:22.331Z,99785.52
2022-07-26T19:55:51.576Z,99788.67
2022-07-26T19:58:20.415Z,99792.25
2022-07-26T20:00:56.253Z,99797.13
2022-07-26T20:03:25.259Z,99798.58
2022-07-26T20:05:58.873Z,99800.77
2022-07-26T20:08:28.892Z,99804.40
2022-07-26T20:10:58.958Z,99804.27
2022-07-26T20:13:27.463Z,99808.65
2022-07-26T20:15:55.987Z,99811.29
2022-07-26T20:18:28.493Z,99807.69
2022-07-26T20:20:59.215Z,99806.56
2022-07-26T20:23:29.115Z,99814.80
2022-07-26T20:25:57.729Z,99820.48
2022-07-26T20:28:27.462Z,99824.19
2022-07-26T20:30:56.414Z,99829.65
2022-07-26T20:33:25.795Z,99829.81
2022-07-26T20:35:55.502Z,99837.48
2022-07-26T20:38:25.290Z,99848.75
2022-07-26T20:40:53.949Z,99849.61
2022-07-26T20:43:22.734Z,99851.67
2022-07-26T20:45:51.774Z,99849.27
2022-07-26T20:48:21.129Z,99850.91
2022-07-26T20:50:50.386Z,99855.03
2022-07-26T20:53:19.177Z,99851.15
2022-07-26T20:55:47.841Z,99855.02
2022-07-26T20:58:17.984Z,99856.64
